createdAt,value
2023-05-04T00:00:23.217Z,10.67
2023-05-04T00:02:52.197Z,10.30
2023-05-04T00:05:21.471Z,11.20
2023-05-04T00:07:50.340Z,10.20
2023-05-04T00:10:19.529Z,10.03
2023-05-04T00:12:48.263Z,11.87
2023-05-04T00:15:18.888Z,10.20
2023-05-04T00:17:47.782Z,9.83
2023-05-04T00:20:16.770Z,10.87
2023-05-04T00:22:45.760Z,9.70
2023-05-04T00:25:15.258Z,10.50
2023-05-04T00:27:44.065Z,9.30
2023-05-04T00:30:13.378Z,9.77
2023-05-04T00:32:44.210Z,10.00
2023-05-04T00:35:13.186Z,9.60
2023-05-04T00:37:43.845Z,9.73
2023-05-04T00:40:13.353Z,9.53
2023-05-04T00:42:42.162Z,10.30
2023-05-04T00:45:11.667Z,9.90
2023-05-04T00:47:40.978Z,9.63
2023-05-04T00:50:14.026Z,9.77
2023-05-04T00:52:45.134Z,9.00
2023-05-04T00:55:14.511Z,9.87
2023-05-04T00:57:43.928Z,9.60
2023-05-04T01:00:13.950Z,10.63
2023-05-04T01:02:43.576Z,12.70
2023-05-04T01:05:14.629Z,12.33
2023-05-04T01:07:53.230Z,12.90
2023-05-04T01:10:28.548Z,11.17
2023-05-04T01:13:02.245Z,11.27
2023-05-04T01:15:32.015Z,11.03
2023-05-04T01:18:00.962Z,11.70
2023-05-04T01:20:32.471Z,11.87
2023-05-04T01:23:03.540Z,11.93
2023-05-04T01:25:35.480Z,10.50
2023-05-04T01:28:11.525Z,10.37
2023-05-04T01:30:45.718Z,9.97
2023-05-04T01:33:17.021Z,9.83
2023-05-04T01:35:46.764Z,10.33
2023-05-04T01:38:17.364Z,10.77
2023-05-04T01:40:46.639Z,10.67
2023-05-04T01:43:15.421Z,9.87
2023-05-04T01:45:44.593Z,11.03
2023-05-04T01:48:14.953Z,10.63
2023-05-04T01:50:43.933Z,11.90
2023-05-04T01:53:12.888Z,11.40
2023-05-04T01:55:43.281Z,11.07
2023-05-04T01:58:12.461Z,11.70
2023-05-04T02:00:41.478Z,10.93
2023-05-04T02:03:10.807Z,10.20
2023-05-04T02:05:39.955Z,10.73
2023-05-04T02:08:09.138Z,9.23
2023-05-04T02:10:38.323Z,10.57
2023-05-04T02:13:08.993Z,9.83
2023-05-04T02:15:38.023Z,9.80
2023-05-04T02:18:07.038Z,10.50
2023-05-04T02:20:35.849Z,10.00
2023-05-04T02:23:04.661Z,9.33
2023-05-04T02:25:33.550Z,8.83
2023-05-04T02:28:02.486Z,8.43
2023-05-04T02:30:32.968Z,10.03
2023-05-04T02:33:02.032Z,10.00
2023-05-04T02:35:31.222Z,10.60
2023-05-04T02:38:00.615Z,11.53
2023-05-04T02:40:29.625Z,11.57
2023-05-04T02:42:59.157Z,12.70
2023-05-04T02:45:29.018Z,12.20
2023-05-04T02:47:59.642Z,11.50
2023-05-04T02:50:28.389Z,13.57
2023-05-04T02:52:57.155Z,11.70
2023-05-04T02:55:26.115Z,12.63
2023-05-04T02:57:54.845Z,12.77
2023-05-04T03:00:23.991Z,13.97
2023-05-04T03:02:53.282Z,13.00
2023-05-04T03:05:24.111Z,13.57
2023-05-04T03:07:54.837Z,12.77
2023-05-04T03:10:23.793Z,12.90
2023-05-04T03:12:52.806Z,12.23
2023-05-04T03:15:21.768Z,12.30
2023-05-04T03:17:50.761Z,12.37
2023-05-04T03:20:19.898Z,10.23
2023-05-04T03:22:50.432Z,10.73
2023-05-04T03:25:19.637Z,10.30
2023-05-04T03:27:49.038Z,10.57
2023-05-04T03:30:18.276Z,11.47
2023-05-04T03:32:50.318Z,11.00
2023-05-04T03:35:24.690Z,10.50
2023-05-04T03:37:57.885Z,11.43
2023-05-04T03:40:26.783Z,10.63
2023-05-04T03:42:56.944Z,11.93
2023-05-04T03:45:28.612Z,10.47
2023-05-04T03:47:59.849Z,11.17
2023-05-04T03:50:29.970Z,11.10
2023-05-04T03:53:00.814Z,10.03
2023-05-04T03:55:31.027Z,10.20
2023-05-04T03:58:00.186Z,9.13
2023-05-04T04:00:29.897Z,9.60
2023-05-04T04:03:09.315Z,9.17
2023-05-04T04:05:39.390Z,7.77
2023-05-04T04:08:10.144Z,7.40
2023-05-04T04:10:39.049Z,7.07
2023-05-04T04:13:08.034Z,8.67
2023-05-04T04:15:36.860Z,8.03
2023-05-04T04:18:06.138Z,8.13
2023-05-04T04:20:35.037Z,7.90
2023-05-04T04:23:04.132Z,8.67
2023-05-04T04:25:34.640Z,8.37
2023-05-04T04:28:03.802Z,9.70
2023-05-04T04:30:32.844Z,10.57
2023-05-04T04:33:02.399Z,10.97
2023-05-04T04:35:32.759Z,11.30
2023-05-04T04:38:03.778Z,11.60
2023-05-04T04:40:34.673Z,10.73
2023-05-04T04:43:04.794Z,11.13
2023-05-04T04:45:34.193Z,10.98
2023-05-04T04:48:03.915Z,10.93
2023-05-04T04:50:33.257Z,10.93
2023-05-04T04:53:02.070Z,11.25
2023-05-04T04:55:31.130Z,11.40
2023-05-04T04:58:01.786Z,10.88
2023-05-04T05:00:30.987Z,11.00
2023-05-04T05:02:59.775Z,10.95
2023-05-04T05:05:30.961Z,11.05
2023-05-04T05:08:00.443Z,11.52
2023-05-04T05:10:29.221Z,12.00
2023-05-04T05:12:57.899Z,11.43
2023-05-04T05:15:28.632Z,11.93
2023-05-04T05:17:57.455Z,12.35
2023-05-04T05:20:26.684Z,11.40
2023-05-04T05:22:55.596Z,12.23
2023-05-04T05:25:24.649Z,12.93
2023-05-04T05:27:53.853Z,12.25
2023-05-04T05:30:22.633Z,12.70
2023-05-04T05:32:53.788Z,12.02
2023-05-04T05:35:22.484Z,12.68
2023-05-04T05:37:51.058Z,12.07
2023-05-04T05:40:20.129Z,12.75
2023-05-04T05:42:48.818Z,13.00
2023-05-04T05:45:17.537Z,12.80
2023-05-04T05:47:46.251Z,13.03
2023-05-04T05:50:16.383Z,13.33
2023-05-04T05:52:45.004Z,12.60
2023-05-04T05:55:13.708Z,14.63
2023-05-04T05:57:42.518Z,12.70
2023-05-04T06:00:12.659Z,12.43
2023-05-04T06:02:41.787Z,11.23
2023-05-04T06:05:10.852Z,12.17
2023-05-04T06:07:40.918Z,11.23
2023-05-04T06:10:10.568Z,10.67
2023-05-04T06:12:39.259Z,11.03
2023-05-04T06:15:09.405Z,11.33
2023-05-04T06:17:38.129Z,11.43
2023-05-04T06:20:08.428Z,11.00
2023-05-04T06:22:37.277Z,9.83
2023-05-04T06:25:08.417Z,9.87
2023-05-04T06:27:37.264Z,10.03
2023-05-04T06:30:08.142Z,9.37
2023-05-04T06:32:37.305Z,10.77
2023-05-04T06:35:08.840Z,10.20
2023-05-04T06:37:37.643Z,10.87
2023-05-04T06:40:09.475Z,10.20
2023-05-04T06:42:38.298Z,9.00
2023-05-04T06:45:08.477Z,9.03
2023-05-04T06:47:37.431Z,10.17
2023-05-04T06:50:10.495Z,10.60
2023-05-04T06:52:41.095Z,11.17
2023-05-04T06:55:11.389Z,11.13
2023-05-04T06:57:40.143Z,9.47
2023-05-04T07:00:10.725Z,10.43
2023-05-04T07:02:39.479Z,10.73
2023-05-04T07:05:08.959Z,11.80
2023-05-04T07:07:37.643Z,10.73
2023-05-04T07:10:07.352Z,7.70
2023-05-04T07:12:37.649Z,8.52
2023-05-04T07:15:08.798Z,7.50
2023-05-04T07:17:38.182Z,8.47
2023-05-04T07:20:08.251Z,6.73
2023-05-04T07:22:36.944Z,7.60
2023-05-04T07:25:06.367Z,7.60
2023-05-04T07:27:36.188Z,7.13
2023-05-04T07:30:08.251Z,6.47
2023-05-04T07:32:37.044Z,6.63
2023-05-04T07:35:06.446Z,5.97
2023-05-04T07:37:35.202Z,5.77
2023-05-04T07:40:06.124Z,6.43
2023-05-04T07:42:35.395Z,5.50
2023-05-04T07:45:06.406Z,6.00
2023-05-04T07:47:35.248Z,5.07
2023-05-04T07:50:04.515Z,5.43
2023-05-04T07:52:33.977Z,5.00
2023-05-04T07:55:02.637Z,6.55
2023-05-04T07:57:32.397Z,4.23
2023-05-04T08:00:01.782Z,3.70
2023-05-04T08:02:31.932Z,3.10
2023-05-04T08:05:00.713Z,3.10
2023-05-04T08:07:29.337Z,4.57
2023-05-04T08:09:58.636Z,3.67
2023-05-04T08:12:28.021Z,3.83
2023-05-04T08:14:56.727Z,4.23
2023-05-04T08:17:25.480Z,3.77
2023-05-04T08:19:55.517Z,4.03
2023-05-04T08:22:24.703Z,4.65
2023-05-04T08:24:53.313Z,4.17
2023-05-04T08:27:21.996Z,5.33
2023-05-04T08:29:50.639Z,4.97
2023-05-04T08:32:19.504Z,3.92
2023-05-04T08:34:48.132Z,5.07
2023-05-04T08:37:18.252Z,5.05
2023-05-04T08:39:47.033Z,5.03
2023-05-04T08:42:15.652Z,3.83
2023-05-04T08:44:44.414Z,3.78
2023-05-04T08:47:13.054Z,4.68
2023-05-04T08:49:41.774Z,4.28
2023-05-04T08:52:11.817Z,4.38
2023-05-04T08:54:43.430Z,4.20
2023-05-04T08:57:12.662Z,7.45
2023-05-04T08:59:42.879Z,4.25
2023-05-04T09:02:14.618Z,4.22
2023-05-04T09:04:43.439Z,3.50
2023-05-04T09:07:13.035Z,3.35
2023-05-04T09:09:43.359Z,4.13
2023-05-04T09:12:12.584Z,3.45
2023-05-04T09:14:42.498Z,3.50
2023-05-04T09:17:17.739Z,3.33
2023-05-04T09:19:46.819Z,3.65
2023-05-04T09:22:17.156Z,3.63
2023-05-04T09:24:47.810Z,3.40
2023-05-04T09:27:18.051Z,3.17
2023-05-04T09:29:54.699Z,3.63
2023-05-04T09:32:24.158Z,3.20
2023-05-04T09:34:54.595Z,3.65
2023-05-04T09:37:24.108Z,3.78
2023-05-04T09:39:55.604Z,3.70
2023-05-04T09:42:25.204Z,3.80
2023-05-04T09:45:01.737Z,3.85
2023-05-04T09:47:35.439Z,3.65
2023-05-04T09:50:16.344Z,4.00
2023-05-04T09:52:48.143Z,3.65
2023-05-04T09:55:19.393Z,3.63
2023-05-04T09:57:50.213Z,4.18
2023-05-04T10:00:20.292Z,4.05
2023-05-04T10:02:50.228Z,3.92
2023-05-04T10:05:21.898Z,3.80
2023-05-04T10:07:51.931Z,4.30
2023-05-04T10:10:21.991Z,3.60
2023-05-04T10:12:50.714Z,3.70
2023-05-04T10:15:21.956Z,4.03
2023-05-04T10:18:08.738Z,4.03
2023-05-04T10:21:06.106Z,5.40
2023-05-04T10:23:50.297Z,5.80
2023-05-04T10:26:43.081Z,3.83
2023-05-04T10:29:23.460Z,4.25
2023-05-04T10:31:53.520Z,4.35
2023-05-04T10:34:26.862Z,4.47
2023-05-04T10:36:55.629Z,3.70
2023-05-04T10:39:26.496Z,3.92
2023-05-04T10:42:12.065Z,3.80
2023-05-04T10:44:51.502Z,4.03
2023-05-04T10:47:32.482Z,3.50
2023-05-04T10:50:05.672Z,3.80
2023-05-04T10:52:46.133Z,3.55
2023-05-04T10:55:16.003Z,4.32
2023-05-04T10:57:53.697Z,4.10
2023-05-04T11:00:23.008Z,4.10
2023-05-04T11:02:52.504Z,4.07
2023-05-04T11:05:21.564Z,3.75
2023-05-04T11:07:53.483Z,3.85
2023-05-04T11:10:23.853Z,3.83
2023-05-04T11:13:02.230Z,3.97
2023-05-04T11:15:33.001Z,4.22
2023-05-04T11:18:01.861Z,3.70
2023-05-04T11:20:31.091Z,3.30
2023-05-04T11:22:59.951Z,3.70
2023-05-04T11:25:29.242Z,4.32
2023-05-04T11:28:00.842Z,3.05
2023-05-04T11:30:34.477Z,3.55
2023-05-04T11:33:05.311Z,3.30
2023-05-04T11:35:34.261Z,3.15
2023-05-04T11:38:03.496Z,3.17
2023-05-04T11:40:32.209Z,3.15
2023-05-04T11:43:03.273Z,3.15
2023-05-04T11:45:33.552Z,3.03
2023-05-04T11:48:03.335Z,3.45
2023-05-04T11:50:32.535Z,2.90
2023-05-04T11:53:09.264Z,2.60
2023-05-04T11:55:38.468Z,3.08
2023-05-04T11:58:09.300Z,3.00
2023-05-04T12:00:40.136Z,3.03
2023-05-04T12:03:12.237Z,2.58
2023-05-04T12:05:48.129Z,3.60
2023-05-04T12:08:26.095Z,2.95
2023-05-04T12:11:10.369Z,2.97
2023-05-04T12:13:41.469Z,5.88
2023-05-04T12:16:11.679Z,4.60
2023-05-04T12:18:41.514Z,3.08
2023-05-04T12:21:11.459Z,4.95
2023-05-04T12:23:40.495Z,3.10
2023-05-04T12:26:10.099Z,3.22
2023-05-04T12:28:42.389Z,2.75
2023-05-04T12:31:11.339Z,3.00
2023-05-04T12:33:40.141Z,3.15
2023-05-04T12:36:10.196Z,3.30
2023-05-04T12:38:39.004Z,3.20
2023-05-04T12:41:10.824Z,3.05
2023-05-04T12:43:40.956Z,2.72
2023-05-04T12:46:10.022Z,2.95
2023-05-04T12:48:38.882Z,3.05
2023-05-04T12:51:07.594Z,3.17
2023-05-04T12:53:36.895Z,2.90
2023-05-04T12:56:05.967Z,2.70
2023-05-04T12:58:37.949Z,2.90
2023-05-04T13:01:08.058Z,3.20
2023-05-04T13:03:36.945Z,8.32
2023-05-04T13:06:05.999Z,3.45
2023-05-04T13:08:34.851Z,3.08
2023-05-04T13:11:03.454Z,2.80
2023-05-04T13:13:32.163Z,2.65
2023-05-04T13:16:00.788Z,4.38
2023-05-04T13:18:31.058Z,3.60
2023-05-04T13:20:59.675Z,4.15
2023-05-04T13:23:28.406Z,4.93
2023-05-04T13:25:57.083Z,3.33
2023-05-04T13:28:25.959Z,3.30
2023-05-04T13:30:54.641Z,2.92
2023-05-04T13:33:29.370Z,3.13
2023-05-04T13:36:05.197Z,3.10
2023-05-04T13:38:33.840Z,3.00
2023-05-04T13:41:02.556Z,2.75
2023-05-04T13:43:31.615Z,2.47
2023-05-04T13:46:04.325Z,3.25
2023-05-04T13:48:34.203Z,3.00
2023-05-04T13:51:05.810Z,2.67
2023-05-04T13:53:34.751Z,2.88
2023-05-04T13:56:03.727Z,2.70
2023-05-04T13:58:32.767Z,2.83
2023-05-04T14:01:01.576Z,2.70
2023-05-04T14:03:32.999Z,3.67
2023-05-04T14:06:01.746Z,2.85
2023-05-04T14:08:31.714Z,2.72
2023-05-04T14:11:00.402Z,3.00
2023-05-04T14:13:29.109Z,3.08
2023-05-04T14:15:58.428Z,2.75
2023-05-04T14:18:28.843Z,4.78
2023-05-04T14:20:57.572Z,2.85
2023-05-04T14:23:26.333Z,3.28
2023-05-04T14:25:57.250Z,2.75
2023-05-04T14:28:26.171Z,2.60
2023-05-04T14:30:54.735Z,2.50
2023-05-04T14:33:23.643Z,2.72
2023-05-04T14:35:52.223Z,2.72
2023-05-04T14:38:21.043Z,2.25
2023-05-04T14:40:49.733Z,2.58
2023-05-04T14:43:19.881Z,2.63
2023-05-04T14:45:48.794Z,3.22
2023-05-04T14:48:18.209Z,2.90
2023-05-04T14:50:47.110Z,2.35
2023-05-04T14:53:15.763Z,3.10
2023-05-04T14:55:44.871Z,2.40
2023-05-04T14:58:14.076Z,2.38
2023-05-04T15:00:44.707Z,3.05
2023-05-04T15:03:13.559Z,3.05
2023-05-04T15:05:42.307Z,2.70
2023-05-04T15:08:10.979Z,2.90
2023-05-04T15:10:39.734Z,3.15
2023-05-04T15:13:08.774Z,4.28
2023-05-04T15:15:40.625Z,2.60
2023-05-04T15:18:11.648Z,3.13
2023-05-04T15:20:40.523Z,3.05
2023-05-04T15:23:11.316Z,2.63
2023-05-04T15:25:40.982Z,3.03
2023-05-04T15:28:10.686Z,2.30
2023-05-04T15:30:39.657Z,2.70
2023-05-04T15:33:08.836Z,2.40
2023-05-04T15:35:39.433Z,2.63
2023-05-04T15:38:08.063Z,2.72
2023-05-04T15:40:37.018Z,2.40
2023-05-04T15:43:05.614Z,3.65
2023-05-04T15:45:34.214Z,2.72
2023-05-04T15:48:02.989Z,2.88
2023-05-04T15:50:33.086Z,2.30
2023-05-04T15:53:03.550Z,2.58
2023-05-04T15:55:32.367Z,2.55
2023-05-04T15:58:00.976Z,2.42
2023-05-04T16:00:29.781Z,3.20
2023-05-04T16:02:58.473Z,2.92
2023-05-04T16:05:27.620Z,2.35
2023-05-04T16:07:57.059Z,2.47
2023-05-04T16:10:27.287Z,3.03
2023-05-04T16:12:56.161Z,2.70
2023-05-04T16:15:24.887Z,2.90
2023-05-04T16:17:53.595Z,3.65
2023-05-04T16:20:22.217Z,2.90
2023-05-04T16:22:50.925Z,2.42
2023-05-04T16:25:19.559Z,2.80
2023-05-04T16:27:49.762Z,3.05
2023-05-04T16:30:18.554Z,2.55
2023-05-04T16:32:47.180Z,2.80
2023-05-04T16:35:16.086Z,3.40
2023-05-04T16:37:44.758Z,2.97
2023-05-04T16:40:15.280Z,3.47
2023-05-04T16:42:44.698Z,2.92
2023-05-04T16:45:15.242Z,3.15
2023-05-04T16:47:44.695Z,4.97
2023-05-04T16:50:14.616Z,3.75
2023-05-04T16:52:43.640Z,3.70
2023-05-04T16:55:12.813Z,2.90
2023-05-04T16:57:41.737Z,2.95
2023-05-04T17:00:13.355Z,3.88
2023-05-04T17:02:44.169Z,3.63
2023-05-04T17:05:13.010Z,4.40
2023-05-04T17:07:43.320Z,5.05
2023-05-04T17:10:12.853Z,4.90
2023-05-04T17:12:42.312Z,5.28
2023-05-04T17:15:12.461Z,5.03
2023-05-04T17:17:41.613Z,5.18
2023-05-04T17:20:15.241Z,4.00
2023-05-04T17:22:44.754Z,4.75
2023-05-04T17:25:14.029Z,6.63
2023-05-04T17:27:43.844Z,4.95
2023-05-04T17:30:13.826Z,4.70
2023-05-04T17:32:42.771Z,5.20
2023-05-04T17:35:24.658Z,4.40
2023-05-04T17:37:57.592Z,4.10
2023-05-04T17:40:27.729Z,7.05
2023-05-04T17:42:57.205Z,5.53
2023-05-04T17:45:25.861Z,6.50
2023-05-04T17:47:54.772Z,7.43
2023-05-04T17:50:25.696Z,22.45
2023-05-04T17:52:55.600Z,14.75
2023-05-04T17:55:25.439Z,14.77
2023-05-04T17:57:54.823Z,10.38
2023-05-04T18:00:23.700Z,8.35
2023-05-04T18:02:52.466Z,7.25
2023-05-04T18:05:21.514Z,6.47
2023-05-04T18:07:51.916Z,7.57
2023-05-04T18:10:21.012Z,12.70
2023-05-04T18:12:49.756Z,11.43
2023-05-04T18:15:18.556Z,11.60
2023-05-04T18:17:48.619Z,10.85
2023-05-04T18:20:17.323Z,17.60
2023-05-04T18:22:46.672Z,19.00
2023-05-04T18:25:20.042Z,20.07
2023-05-04T18:27:49.475Z,19.73
2023-05-04T18:30:18.505Z,23.37
2023-05-04T18:32:47.334Z,31.30
2023-05-04T18:35:17.074Z,18.33
2023-05-04T18:37:45.823Z,9.03
2023-05-04T18:40:16.491Z,6.45
2023-05-04T18:42:45.158Z,5.95
2023-05-04T18:45:14.083Z,6.43
2023-05-04T18:47:42.873Z,6.10
2023-05-04T18:50:12.088Z,5.45
2023-05-04T18:52:40.919Z,5.47
2023-05-04T18:55:10.036Z,6.03
2023-05-04T18:57:40.135Z,6.00
2023-05-04T19:00:10.010Z,6.70
2023-05-04T19:02:38.864Z,6.55
2023-05-04T19:05:07.817Z,7.27
2023-05-04T19:07:37.001Z,7.87
2023-05-04T19:10:06.830Z,6.90
2023-05-04T19:12:36.345Z,6.17
2023-05-04T19:15:07.670Z,6.53
2023-05-04T19:17:36.378Z,5.63
2023-05-04T19:20:05.759Z,5.70
2023-05-04T19:22:34.532Z,6.33
2023-05-04T19:25:04.084Z,5.40
2023-05-04T19:27:32.647Z,5.77
2023-05-04T19:30:01.404Z,5.47
2023-05-04T19:32:32.773Z,5.57
2023-05-04T19:35:01.583Z,5.40
2023-05-04T19:37:30.155Z,5.60
2023-05-04T19:39:59.822Z,5.57
2023-05-04T19:42:28.638Z,6.10
2023-05-04T19:44:57.532Z,5.80
2023-05-04T19:47:26.365Z,5.60
2023-05-04T19:49:56.658Z,7.17
2023-05-04T19:52:25.418Z,8.57
2023-05-04T19:54:54.576Z,6.50
2023-05-04T19:57:23.236Z,5.83
2023-05-04T19:59:52.091Z,5.70
2023-05-04T20:02:20.945Z,6.33
2023-05-04T20:04:49.669Z,6.43
2023-05-04T20:07:19.684Z,6.63
2023-05-04T20:09:48.486Z,6.20
2023-05-04T20:12:17.330Z,5.93
2023-05-04T20:14:45.947Z,5.40
2023-05-04T20:17:14.693Z,6.10
2023-05-04T20:19:44.040Z,6.10
2023-05-04T20:22:12.673Z,5.47
2023-05-04T20:24:42.788Z,5.80
2023-05-04T20:27:11.625Z,6.73
2023-05-04T20:29:40.285Z,7.27
2023-05-04T20:32:09.285Z,7.33
2023-05-04T20:34:39.671Z,8.40
2023-05-04T20:37:08.339Z,7.10
2023-05-04T20:39:36.933Z,6.00
2023-05-04T20:42:08.157Z,6.40
2023-05-04T20:44:36.904Z,7.07
2023-05-04T20:47:05.786Z,6.37
2023-05-04T20:49:34.388Z,7.20
2023-05-04T20:52:04.348Z,6.70
2023-05-04T20:54:32.982Z,6.60
2023-05-04T20:57:01.828Z,7.40
2023-05-04T20:59:32.058Z,7.50
2023-05-04T21:02:00.820Z,6.80
2023-05-04T21:04:29.422Z,8.00
2023-05-04T21:06:58.419Z,8.50
2023-05-04T21:09:28.116Z,9.33
2023-05-04T21:11:56.873Z,8.87
2023-05-04T21:14:25.520Z,9.07
2023-05-04T21:16:55.527Z,9.43
2023-05-04T21:19:24.162Z,10.20
2023-05-04T21:21:52.974Z,10.20
2023-05-04T21:24:22.319Z,8.93
2023-05-04T21:26:51.283Z,9.67
2023-05-04T21:29:20.637Z,8.83
2023-05-04T21:31:49.216Z,9.27
2023-05-04T21:34:19.285Z,9.07
2023-05-04T21:36:55.184Z,9.17
2023-05-04T21:39:26.966Z,9.17
2023-05-04T21:41:55.875Z,9.40
2023-05-04T21:44:24.634Z,8.57
2023-05-04T21:46:53.246Z,8.63
2023-05-04T21:49:23.499Z,8.40
2023-05-04T21:51:52.287Z,8.97
2023-05-04T21:54:22.059Z,9.83
2023-05-04T21:56:50.823Z,9.40
2023-05-04T21:59:22.221Z,9.23
2023-05-04T22:01:50.971Z,9.83
2023-05-04T22:04:19.662Z,8.67
2023-05-04T22:06:49.960Z,8.87
2023-05-04T22:09:19.084Z,8.70
2023-05-04T22:11:48.524Z,8.70
2023-05-04T22:14:17.149Z,9.07
2023-05-04T22:16:46.568Z,8.50
2023-05-04T22:19:15.239Z,8.33
2023-05-04T22:21:43.993Z,8.10
2023-05-04T22:24:13.996Z,8.67
2023-05-04T22:26:42.602Z,8.23
2023-05-04T22:29:11.214Z,9.13
2023-05-04T22:31:39.928Z,8.37
2023-05-04T22:34:08.688Z,8.57
2023-05-04T22:36:37.301Z,8.30
2023-05-04T22:39:05.983Z,8.40
2023-05-04T22:41:36.027Z,7.50
2023-05-04T22:44:05.013Z,8.37
2023-05-04T22:46:33.759Z,8.33
2023-05-04T22:49:02.524Z,8.10
2023-05-04T22:51:31.265Z,8.33
2023-05-04T22:54:00.188Z,8.77
2023-05-04T22:56:28.850Z,8.90
2023-05-04T22:58:58.981Z,7.97
2023-05-04T23:01:27.704Z,8.13
2023-05-04T23:03:56.823Z,8.07
2023-05-04T23:06:25.672Z,8.67
2023-05-04T23:08:54.437Z,8.83
2023-05-04T23:11:23.969Z,8.37
2023-05-04T23:13:52.605Z,9.07
2023-05-04T23:16:22.560Z,8.73
2023-05-04T23:18:51.559Z,9.23
2023-05-04T23:21:20.386Z,8.37
2023-05-04T23:23:51.689Z,9.00
2023-05-04T23:26:20.482Z,8.07
2023-05-04T23:28:49.111Z,8.67
2023-05-04T23:31:18.418Z,8.00
2023-05-04T23:33:48.551Z,8.00
2023-05-04T23:36:17.405Z,8.03
2023-05-04T23:38:46.011Z,8.77
2023-05-04T23:41:14.712Z,9.17
2023-05-04T23:43:43.316Z,7.97
2023-05-04T23:46:12.036Z,8.87
2023-05-04T23:48:40.855Z,8.50
2023-05-04T23:51:11.025Z,8.23
2023-05-04T23:53:40.740Z,9.07
2023-05-04T23:56:09.487Z,8.93
2023-05-04T23:58:38.100Z,8.53
